Data for 06/16/2008

Time Sea-Level Adjusted Pressure Absolute Pressure Temperature Relative Humidity Dew Point   
(mb) (inHg) (mb) (inHg) (C) (F) (%) (C) (F)
00:05 1019 30.09 848 25.04 14.8 58.6 52 5 41
00:10 1019 30.09 849 25.07 14.7 58.4 52 5.1 41.1
00:15 1019 30.09 849 25.07 14.6 58.2 53 5.1 41.1
00:20 1019 30.09 849 25.07 14.4 58 53 5.2 41.3
00:25 1019 30.09 849 25.07 14.2 57.6 55 5.3 41.5
00:30 1020 30.12 849 25.07 14 57.2 55 5.3 41.5
00:35 1020 30.12 849 25.07 13.9 57.1 56 5.4 41.6
00:40 1020 30.12 849 25.07 13.9 57 56 5.4 41.7
00:45 1020 30.12 849 25.07 13.8 56.8 57 5.5 42
00:50 1020 30.12 849 25.07 13.6 56.5 58 5.5 42
00:55 1020 30.12 849 25.07 13.5 56.3 59 5.6 42.1
01:00 1020 30.12 849 25.07 13.4 56.1 59 5.7 42.2
01:05 1020 30.12 849 25.07 13.3 55.9 60 5.7 42.2
01:10 1020 30.12 849 25.07 13.2 55.8 60 5.7 42.2
01:15 1020 30.12 849 25.07 13.2 55.8 60 5.6 42.2
01:20 1020 30.12 849 25.07 13.2 55.7 60 5.7 42.3
01:25 1020 30.12 849 25.07 13.2 55.7 60 5.6 42.1
01:30 1020 30.12 849 25.07 13.1 55.6 61 5.8 42.4
01:35 1020 30.12 849 25.07 12.9 55.3 61 5.7 42.3
01:40 1020 30.12 849 25.07 12.8 55.1 62 5.7 42.3
01:45 1020 30.12 849 25.07 12.7 54.9 62 5.7 42.3
01:50 1020 30.12 849 25.07 12.7 54.8 62 5.7 42.2
01:55 1020 30.12 849 25.07 12.7 54.9 62 5.7 42.2
02:00 1020 30.12 849 25.07 12.8 55 62 5.7 42.2
02:05 1020 30.12 849 25.07 12.6 54.7 63 5.7 42.3
02:10 1020 30.12 849 25.07 12.6 54.6 63 5.7 42.2
02:15 1020 30.12 849 25.07 12.5 54.5 63 5.7 42.3
02:20 1020 30.12 849 25.07 12.4 54.3 64 5.7 42.3
02:25 1020 30.12 849 25.07 12.3 54.2 64 5.7 42.2
02:30 1020 30.12 849 25.07 12.3 54.1 64 5.7 42.2
02:35 1020 30.12 849 25.07 12.2 54 64 5.7 42.2
02:40 1020 30.12 849 25.07 12.2 54 64 5.6 42.1
02:45 1020 30.12 849 25.07 12.2 54 64 5.7 42.2
02:50 1020 30.12 849 25.07 12.2 53.9 64 5.5 42
02:55 1019 30.09 849 25.07 12.2 53.9 63 5.5 41.9
03:00 1019 30.09 849 25.07 12.3 54.1 63 5.5 42
03:05 1019 30.09 849 25.07 12.2 54 64 5.6 42
03:10 1019 30.09 849 25.07 12.2 54 64 5.6 42.1
03:15 1019 30.09 849 25.07 12.2 53.9 64 5.5 42
03:20 1019 30.09 849 25.07 12.1 53.7 64 5.6 42
03:25 1019 30.09 849 25.07 11.9 53.5 65 5.6 42.1
03:30 1019 30.09 849 25.07 11.8 53.2 66 5.6 42.1
03:35 1019 30.09 849 25.07 11.6 53 67 5.7 42.2
03:40 1019 30.09 849 25.07 11.5 52.7 67 5.6 42.1
03:45 1019 30.09 849 25.07 11.4 52.4 68 5.7 42.2
03:50 1019 30.09 849 25.07 11.1 51.9 69 5.7 42.2
03:55 1019 30.09 849 25.07 10.9 51.6 70 5.6 42
04:00 1019 30.09 849 25.07 10.8 51.4 70 5.5 42
04:05 1019 30.09 848 25.04 10.8 51.4 70 5.5 41.9
04:10 1019 30.09 848 25.04 10.8 51.4 70 5.5 41.9
04:15 1019 30.09 848 25.04 10.8 51.4 70 5.5 41.9
04:20 1019 30.09 848 25.04 10.9 51.6 69 5.5 41.9
04:25 1019 30.09 848 25.04 10.8 51.5 70 5.5 42
04:30 1019 30.09 848 25.04 10.8 51.4 70 5.5 41.9
04:35 1019 30.09 848 25.04 10.7 51.3 70 5.5 41.9
04:40 1019 30.09 849 25.07 10.7 51.2 70 5.5 41.9
04:45 1019 30.09 849 25.07 10.6 51 71 5.5 41.8
04:50 1019 30.09 849 25.07 10.5 50.9 71 5.5 41.9
04:55 1019 30.09 849 25.07 10.5 51 70 5.4 41.7
05:00 1019 30.09 849 25.07 10.6 51.1 70 5.4 41.8
05:05 1019 30.09 849 25.07 10.6 51.1 70 5.4 41.7
05:10 1019 30.09 849 25.07 10.6 51.1 70 5.4 41.7
05:15 1019 30.09 849 25.07 10.5 51 71 5.4 41.8
05:20 1019 30.09 849 25.07 10.4 50.8 71 5.4 41.7
05:25 1019 30.09 849 25.07 10.5 50.8 71 5.4 41.7
05:30 1019 30.09 849 25.07 10.4 50.8 71 5.4 41.7
05:35 1019 30.09 849 25.07 10.3 50.5 72 5.4 41.7
05:40 1020 30.12 849 25.07 10.2 50.3 72 5.4 41.7
05:45 1020 30.12 849 25.07 10.1 50.2 72 5.4 41.7
05:50 1020 30.12 849 25.07 10 50 73 5.4 41.7
05:55 1020 30.12 849 25.07 10.1 50.1 72 5.3 41.6
06:00 1020 30.12 849 25.07 10.2 50.4 72 5.5 41.8
06:05 1020 30.12 849 25.07 10.4 50.6 71 5.4 41.8
06:10 1020 30.12 849 25.07 10.4 50.6 72 5.5 41.9
06:15 1020 30.12 849 25.07 10.3 50.6 72 5.5 42
06:20 1020 30.12 849 25.07 10.3 50.6 72 5.5 42
06:25 1020 30.12 849 25.07 10.4 50.7 72 5.5 42
06:30 1020 30.12 849 25.07 10.6 51.1 71 5.6 42.1
06:35 1020 30.12 849 25.07 10.7 51.2 71 5.7 42.3
06:40 1020 30.12 849 25.07 10.7 51.3 71 5.7 42.3
06:45 1020 30.12 849 25.07 10.8 51.4 71 5.8 42.4
06:50 1020 30.12 849 25.07 10.9 51.6 71 5.9 42.5
06:55 1020 30.12 849 25.07 11 51.8 70 5.9 42.5
07:00 1020 30.12 849 25.07 11.1 52 70 5.8 42.5
07:05 1020 30.12 849 25.07 11.4 52.4 69 6 42.8
07:10 1020 30.12 849 25.07 11.4 52.6 69 6 42.8
07:15 1020 30.12 849 25.07 11.6 52.9 68 6 42.9
07:20 1020 30.12 849 25.07 11.7 53.1 68 6.1 42.9
07:25 1020 30.12 849 25.07 11.7 53.1 68 6 42.9
07:30 1020 30.12 849 25.07 12 53.5 67 6 42.9
07:35 1020 30.12 849 25.07 12.2 54 66 6.1 43
07:40 1020 30.12 849 25.07 12.9 55.3 64 6.4 43.5
07:45 1020 30.12 849 25.07 13.2 55.7 63 6.4 43.6
07:50 1020 30.12 849 25.07 13.2 55.8 64 6.6 44
07:55 1020 30.12 849 25.07 13.2 55.8 64 6.6 43.9
08:00 1020 30.12 849 25.07 13.6 56.4 63 6.8 44.2
08:05 1020 30.12 849 25.07 13.6 56.5 62 6.6 43.8
08:10 1020 30.12 849 25.07 13.9 57.1 61 6.5 43.7
08:15 1020 30.12 849 25.07 14.5 58.2 58 6.4 43.4
08:20 1020 30.12 849 25.07 14.6 58.2 58 6.4 43.5
08:25 1020 30.12 849 25.07 14.8 58.7 55 5.9 42.6
08:30 1020 30.12 849 25.07 15.3 59.5 55 6.4 43.4
08:35 1020 30.12 849 25.07 15.5 59.9 53 6.2 43.1
08:40 1020 30.12 849 25.07 15.6 60 54 6.4 43.5
08:45 1020 30.12 849 25.07 15.4 59.7 54 6.2 43.2
08:50 1020 30.12 849 25.07 15.5 59.8 53 6.1 43
08:55 1020 30.12 849 25.07 15.7 60.2 53 6.2 43.2
09:00 1020 30.12 849 25.07 16 60.9 52 6.4 43.5
09:05 1020 30.12 849 25.07 16.4 61.5 51 6.4 43.5
09:10 1020 30.12 849 25.07 16.2 61.1 52 6.3 43.4
09:15 1020 30.12 849 25.07 16.4 61.4 54 7.1 44.7
09:20 1020 30.12 849 25.07 16.4 61.5 54 7.1 44.9
09:25 1020 30.12 849 25.07 16.4 61.6 53 7 44.6
09:30 1020 30.12 849 25.07 16.6 61.9 54 7.3 45.1
09:35 1020 30.12 849 25.07 16.4 61.4 56 7.6 45.6
09:40 1020 30.12 849 25.07 16.3 61.4 54 7.1 44.9
09:45 1020 30.12 849 25.07 16.8 62.2 53 7.3 45.2
09:50 1020 30.12 849 25.07 16.9 62.3 51 6.9 44.4
09:55 1020 30.12 849 25.07 17.2 63 51 7.2 44.9
10:00 1020 30.12 849 25.07 18 64.4 49 7.1 44.8
10:05 1020 30.12 849 25.07 18.4 65.1 48 7.2 44.9
10:10 1020 30.12 849 25.07 17.6 63.7 50 7.2 44.9
10:15 1020 30.12 849 25.07 17.5 63.6 50 7.2 45
10:20 1020 30.12 849 25.07 18.8 65.9 46 7 44.5
10:25 1020 30.12 849 25.07 19.1 66.4 44 6.6 43.9
10:30 1020 30.12 849 25.07 18.8 65.8 43 6.2 43.2
10:35 1020 30.12 849 25.07 17.8 64 42 4.9 40.8
10:40 1020 30.12 849 25.07 17.3 63.2 47 6.1 43
10:45 1020 30.12 849 25.07 18.3 65 43 5.7 42.3
10:50 1020 30.12 849 25.07 19.4 66.9 38 4.8 40.6
10:55 1020 30.12 849 25.07 19.3 66.7 42 6 42.9
11:00 1020 30.12 849 25.07 19.4 66.9 39 5.3 41.6
11:05 1020 30.12 849 25.07 18.9 66 39 5 40.9
11:10 1020 30.12 849 25.07 19 66.3 41 5.5 42
11:15 1020 30.12 849 25.07 18.7 65.7 45 6.6 43.9
11:20 1020 30.12 849 25.07 19.1 66.3 42 6 42.8
11:25 1020 30.12 849 25.07 19.7 67.5 42 6.6 43.8
11:30 1020 30.12 849 25.07 20.2 68.3 40 6.4 43.5
11:35 1020 30.12 849 25.07 20.2 68.3 39 6 42.8
11:40 1020 30.12 849 25.07 20.4 68.8 41 7.1 44.7
11:45 1020 30.12 849 25.07 20 67.9 41 6.3 43.3
11:50 1020 30.12 849 25.07 20.4 68.7 39 6.1 43
11:55 1020 30.12 849 25.07 20.2 68.4 41 6.8 44.2
12:00 1020 30.12 849 25.07 20.8 69.4 39 6.3 43.4
12:05 1020 30.12 849 25.07 21.2 70.2 37 6.2 43.2
12:10 1020 30.12 849 25.07 21.2 70.1 38 6.5 43.8
12:15 1020 30.12 849 25.07 20.1 68.3 40 6.2 43.2
12:20 1020 30.12 849 25.07 20.1 68.2 38 5.4 41.8
12:25 1020 30.12 849 25.07 19.8 67.7 37 4.8 40.7
12:30 1020 30.12 849 25.07 20 68.1 37 5.1 41.2
12:35 1020 30.12 849 25.07 20.1 68.1 37 5.1 41.1
12:40 1019 30.09 849 25.07 20 68.1 38 5.5 41.9
12:45 1019 30.09 849 25.07 20.3 68.6 40 6.5 43.6
12:50 1019 30.09 849 25.07 20 68 39 5.7 42.2
12:55 1019 30.09 848 25.04 21.1 70 35 5.3 41.5
13:00 1019 30.09 848 25.04 21.4 70.5 34 4.9 40.9
13:05 1019 30.09 848 25.04 22.2 71.9 32 5.1 41.2
13:10 1019 30.09 848 25.04 22.7 72.9 32 5.3 41.5
13:15 1019 30.09 848 25.04 22.6 72.6 33 5.6 42.1
13:20 1019 30.09 848 25.04 21.4 70.6 35 5.5 41.9
13:25 1019 30.09 848 25.04 21.8 71.3 33 5.2 41.3
13:30 1019 30.09 848 25.04 22.3 72.1 33 5.5 41.8
13:35 1019 30.09 848 25.04 22.7 72.9 33 5.6 42.1
13:40 1019 30.09 848 25.04 23.3 73.9 31 5.4 41.7
13:45 1019 30.09 848 25.04 22.6 72.7 33 5.7 42.2
13:50 1019 30.09 848 25.04 22.7 72.9 32 5.4 41.8
13:55 1019 30.09 848 25.04 23.3 74 31 5.5 42
14:00 1019 30.09 848 25.04 23.6 74.6 30 5.1 41.1
14:05 1019 30.09 848 25.04 23.6 74.6 28 4.5 40.2
14:10 1019 30.09 848 25.04 24 75.3 27 3.9 39.1
14:15 1019 30.09 848 25.04 23.6 74.5 29 4.9 40.9
14:20 1019 30.09 848 25.04 23.4 74.1 29 4.6 40.3
14:25 1019 30.09 848 25.04 23.8 74.9 27 3.9 39
14:30 1019 30.09 848 25.04 23.9 74.9 28 4.6 40.2
14:35 1019 30.09 848 25.04 23.8 74.8 27 3.8 38.9
14:40 1019 30.09 848 25.04 23.9 75 28 4.4 39.9
14:45 1019 30.09 848 25.04 24.1 75.4 27 4.2 39.5
14:50 1019 30.09 848 25.04 24.1 75.4 27 4.2 39.6
14:55 1019 30.09 848 25.04 23.9 74.9 27 3.8 38.8
15:00 1019 30.09 848 25.04 23.2 73.8 27 3.5 38.2
15:05 1019 30.09 848 25.04 23.9 74.9 26 3.3 38
15:10 1019 30.09 848 25.04 24.8 76.6 24 2.9 37.2
15:15 1019 30.09 848 25.04 23.9 75 25 2.9 37.2
15:20 1019 30.09 848 25.04 23.4 74.2 25 2.4 36.4
15:25 1019 30.09 848 25.04 24.7 76.5 23 2.6 36.7
15:30 1019 30.09 848 25.04 25 77 21 1.6 34.9
15:35 1019 30.09 848 25.04 24.1 75.4 21 0.9 33.5
15:40 1018 30.06 848 25.04 24.4 76 20 0.3 32.6
15:45 1018 30.06 848 25.04 24.5 76.2 21 0.7 33.3
15:50 1018 30.06 848 25.04 24.5 76.2 20 0.2 32.4
15:55 1018 30.06 848 25.04 24.8 76.6 19 -0.1 31.9
16:00 1018 30.06 848 25.04 24.6 76.2 19 -0.1 31.8
16:05 1018 30.06 848 25.04 24.8 76.6 19 -0.2 31.6
16:10 1018 30.06 847 25.01 25.1 77.1 20 0.5 32.8
16:15 1018 30.06 847 25.01 25.3 77.6 19 0.5 32.8
16:20 1018 30.06 847 25.01 26.1 79 18 0.2 32.3
16:25 1018 30.06 847 25.01 25.4 77.7 19 0.3 32.5
16:30 1018 30.06 847 25.01 25.2 77.4 18 -0.5 31.1
16:35 1018 30.06 847 25.01 24.8 76.6 19 0.2 32.3
16:40 1018 30.06 847 25.01 24.6 76.2 20 0.5 32.9
16:45 1018 30.06 847 25.01 25.4 77.6 19 0.7 33.2
16:50 1018 30.06 847 25.01 25.5 78 18 -0.4 31.3
16:55 1018 30.06 847 25.01 25.3 77.5 19 0.3 32.5
17:00 1018 30.06 847 25.01 25.7 78.2 19 0.8 33.5
17:05 1018 30.06 847 25.01 25.8 78.5 19 0.5 32.8
17:10 1018 30.06 847 25.01 25.6 78 19 0.2 32.3
17:15 1018 30.06 847 25.01 25.5 77.9 18 -0.1 31.8
17:20 1018 30.06 847 25.01 25.3 77.5 19 0.1 32.2
17:25 1018 30.06 847 25.01 24.8 76.6 19 0.2 32.3
17:30 1018 30.06 847 25.01 24.8 76.6 19 -0.2 31.6
17:35 1018 30.06 847 25.01 25 77 19 0.2 32.4
17:40 1018 30.06 847 25.01 25.6 78.1 19 0.7 33.2
17:45 1018 30.06 847 25.01 26.1 79 19 0.9 33.5
17:50 1018 30.06 847 25.01 25.9 78.6 18 0.3 32.6
17:55 1018 30.06 847 25.01 25.7 78.2 19 0.6 33.1
18:00 1018 30.06 847 25.01 25.7 78.2 18 0.2 32.3
18:05 1018 30.06 847 25.01 26.1 78.9 18 0 32.1
18:10 1018 30.06 847 25.01 26.2 79.2 18 0.3 32.6
18:15 1018 30.06 847 25.01 26.4 79.5 18 0.8 33.4
18:20 1018 30.06 847 25.01 26.4 79.6 19 1.1 34
18:25 1018 30.06 847 25.01 26.4 79.5 18 0.7 33.2
18:30 1018 30.06 847 25.01 26 78.8 18 0.2 32.4
18:35 1018 30.06 847 25.01 25.2 77.3 19 0.2 32.3
18:40 1018 30.06 847 25.01 25 76.9 20 0.6 33
18:45 1018 30.06 847 25.01 25.4 77.7 19 0.4 32.8
18:50 1018 30.06 847 25.01 25.5 78 21 1.6 35
18:55 1018 30.06 847 25.01 25.2 77.3 21 1.4 34.6
19:00 1018 30.06 847 25.01 24.7 76.4 21 1 33.8
19:05 1018 30.06 847 25.01 24.5 76.1 20 0.4 32.8
19:10 1018 30.06 847 25.01 24.5 76 20 0.2 32.4
19:15 1018 30.06 847 25.01 24.3 75.8 20 0.4 32.6
19:20 1018 30.06 847 25.01 24 75.2 21 0.6 33
19:25 1018 30.06 847 25.01 24 75.3 23 2 35.5
19:30 1018 30.06 847 25.01 24.1 75.3 23 1.8 35.2
19:35 1018 30.06 847 25.01 23.5 74.3 29 4.7 40.5
19:40 1018 30.06 847 25.01 22.6 72.6 30 4.4 40
19:45 1018 30.06 848 25.04 22.2 72 29 3.3 38
19:50 1018 30.06 848 25.04 21.9 71.4 32 4.8 40.6
19:55 1018 30.06 848 25.04 21.5 70.7 33 4.8 40.6
20:00 1018 30.06 848 25.04 21.5 70.6 32 4.2 39.6
20:05 1018 30.06 848 25.04 21.5 70.8 31 3.9 39
20:10 1018 30.06 848 25.04 21.7 71 31 4.1 39.4
20:15 1018 30.06 848 25.04 21.6 70.9 32 4.5 40.1
20:20 1018 30.06 848 25.04 21.6 70.8 32 4.2 39.5
20:25 1018 30.06 848 25.04 21.5 70.7 32 4.1 39.5
20:30 1018 30.06 848 25.04 21.5 70.7 34 5.4 41.7
20:35 1018 30.06 847 25.01 21.4 70.4 37 6.2 43.1
20:40 1018 30.06 847 25.01 21.1 70 34 4.7 40.5
20:45 1018 30.06 847 25.01 21.1 70 34 4.9 40.8
20:50 1018 30.06 847 25.01 21.2 70.2 34 4.9 40.8
20:55 1018 30.06 847 25.01 21.3 70.3 33 4.5 40
21:00 1018 30.06 847 25.01 21.4 70.4 32 4.4 39.9
21:05 1018 30.06 847 25.01 21.3 70.3 33 4.5 40.1
21:10 1018 30.06 847 25.01 21.1 70 33 4.2 39.6
21:15 1018 30.06 847 25.01 20.8 69.5 34 4.7 40.5
21:20 1018 30.06 848 25.04 20.1 68.2 38 5.5 41.9
21:25 1019 30.09 848 25.04 19.7 67.4 41 6.3 43.3
21:30 1019 30.09 848 25.04 19.3 66.8 43 6.6 43.9
21:35 1019 30.09 848 25.04 19.3 66.7 42 6.3 43.3
21:40 1019 30.09 848 25.04 19 66.3 43 6.2 43.1
21:45 1019 30.09 848 25.04 18.8 65.8 40 5.2 41.4
21:50 1019 30.09 848 25.04 18.8 65.8 40 5.2 41.3
21:55 1019 30.09 848 25.04 18.6 65.5 42 5.5 41.9
22:00 1019 30.09 848 25.04 18.4 65.1 43 5.7 42.2
22:05 1019 30.09 848 25.04 18.2 64.8 44 5.8 42.4
22:10 1019 30.09 848 25.04 17.9 64.3 45 6 42.8
22:15 1019 30.09 848 25.04 17.7 63.8 45 5.8 42.5
22:20 1019 30.09 848 25.04 17.5 63.6 46 5.8 42.5
22:25 1019 30.09 848 25.04 17.3 63.2 48 6.4 43.5
22:30 1019 30.09 848 25.04 17.1 62.9 48 6.1 43
22:35 1019 30.09 848 25.04 17.1 62.7 47 5.8 42.4
22:40 1019 30.09 848 25.04 17 62.6 48 5.9 42.5
22:45 1019 30.09 848 25.04 16.7 62.1 48 5.8 42.5
22:50 1019 30.09 848 25.04 16.5 61.7 49 5.8 42.4
22:55 1019 30.09 848 25.04 16.6 61.9 48 5.5 41.9
23:00 1019 30.09 848 25.04 16.6 61.9 49 5.9 42.6
23:05 1019 30.09 848 25.04 16.3 61.3 51 6.1 42.9
23:10 1019 30.09 848 25.04 16 60.9 50 5.6 42.1
23:15 1019 30.09 848 25.04 15.9 60.6 51 6 42.7
23:20 1019 30.09 848 25.04 15.4 59.8 53 6.1 43
23:25 1019 30.09 848 25.04 15.2 59.4 52 5.5 41.9
23:30 1019 30.09 848 25.04 15.5 59.9 51 5.6 42.1
23:35 1019 30.09 848 25.04 15.5 60 53 6.1 42.9
23:40 1019 30.09 848 25.04 15.5 59.9 51 5.5 41.9
23:45 1019 30.09 848 25.04 15.4 59.7 51 5.5 41.9
23:50 1019 30.09 848 25.04 15.5 59.8 50 5.3 41.6
23:55 1019 30.09 848 25.04 15.6 60 49 5.1 41.2
24:00 1019 30.09 848 25.04 15.6 60.1 51 5.7 42.2